sensor_id;sensor_type;location;lat;lon;timestamp;P1;durP1;ratioP1;P2;durP2;ratioP2
57443;SDS011;43289;52.962;6.196;2023-06-14T00:00:51;5.80;;;2.47;;
57443;SDS011;43289;52.962;6.196;2023-06-14T00:03:18;5.90;;;2.53;;
57443;SDS011;43289;52.962;6.196;2023-06-14T00:05:44;5.25;;;2.53;;
57443;SDS011;43289;52.962;6.196;2023-06-14T00:08:11;4.60;;;2.50;;
57443;SDS011;43289;52.962;6.196;2023-06-14T00:10:37;8.02;;;2.53;;
57443;SDS011;43289;52.962;6.196;2023-06-14T00:13:06;6.75;;;2.30;;
57443;SDS011;43289;52.962;6.196;2023-06-14T00:15:34;10.43;;;3.15;;
57443;SDS011;43289;52.962;6.196;2023-06-14T00:18:01;11.15;;;2.53;;
57443;SDS011;43289;52.962;6.196;2023-06-14T00:20:27;3.72;;;2.10;;
57443;SDS011;43289;52.962;6.196;2023-06-14T00:22:54;6.50;;;2.50;;
57443;SDS011;43289;52.962;6.196;2023-06-14T00:25:22;7.97;;;2.95;;
57443;SDS011;43289;52.962;6.196;2023-06-14T00:27:48;5.00;;;2.63;;
57443;SDS011;43289;52.962;6.196;2023-06-14T00:30:14;4.35;;;2.38;;
57443;SDS011;43289;52.962;6.196;2023-06-14T00:32:40;5.07;;;2.47;;
57443;SDS011;43289;52.962;6.196;2023-06-14T00:35:08;5.40;;;2.80;;
57443;SDS011;43289;52.962;6.196;2023-06-14T00:37:34;4.90;;;2.45;;
57443;SDS011;43289;52.962;6.196;2023-06-14T00:40:00;6.78;;;2.95;;
57443;SDS011;43289;52.962;6.196;2023-06-14T00:42:26;9.05;;;2.67;;
57443;SDS011;43289;52.962;6.196;2023-06-14T00:44:53;7.95;;;2.92;;
57443;SDS011;43289;52.962;6.196;2023-06-14T00:47:19;7.55;;;2.58;;
57443;SDS011;43289;52.962;6.196;2023-06-14T00:49:46;9.05;;;2.83;;
57443;SDS011;43289;52.962;6.196;2023-06-14T00:52:13;6.35;;;2.50;;
57443;SDS011;43289;52.962;6.196;2023-06-14T00:54:40;9.70;;;2.83;;
57443;SDS011;43289;52.962;6.196;2023-06-14T00:57:06;6.00;;;2.53;;
57443;SDS011;43289;52.962;6.196;2023-06-14T00:59:33;8.85;;;2.90;;
57443;SDS011;43289;52.962;6.196;2023-06-14T01:01:59;4.30;;;2.42;;
57443;SDS011;43289;52.962;6.196;2023-06-14T01:04:25;6.07;;;2.50;;
57443;SDS011;43289;52.962;6.196;2023-06-14T01:06:56;4.63;;;2.72;;
57443;SDS011;43289;52.962;6.196;2023-06-14T01:09:33;5.18;;;2.30;;
57443;SDS011;43289;52.962;6.196;2023-06-14T01:12:16;5.45;;;3.35;;
57443;SDS011;43289;52.962;6.196;2023-06-14T01:14:42;7.43;;;2.30;;
57443;SDS011;43289;52.962;6.196;2023-06-14T01:17:09;5.13;;;2.78;;
57443;SDS011;43289;52.962;6.196;2023-06-14T01:19:42;5.50;;;3.00;;
57443;SDS011;43289;52.962;6.196;2023-06-14T01:22:08;5.93;;;2.70;;
57443;SDS011;43289;52.962;6.196;2023-06-14T01:24:34;5.28;;;2.65;;
57443;SDS011;43289;52.962;6.196;2023-06-14T01:27:00;4.38;;;2.65;;
57443;SDS011;43289;52.962;6.196;2023-06-14T01:29:27;7.82;;;2.65;;
57443;SDS011;43289;52.962;6.196;2023-06-14T01:31:57;5.93;;;3.03;;
57443;SDS011;43289;52.962;6.196;2023-06-14T01:34:23;7.65;;;2.92;;
57443;SDS011;43289;52.962;6.196;2023-06-14T01:36:50;6.00;;;2.90;;
57443;SDS011;43289;52.962;6.196;2023-06-14T01:39:17;8.82;;;2.63;;
57443;SDS011;43289;52.962;6.196;2023-06-14T01:41:43;5.03;;;2.45;;
57443;SDS011;43289;52.962;6.196;2023-06-14T01:44:10;5.50;;;2.67;;
57443;SDS011;43289;52.962;6.196;2023-06-14T01:46:37;5.70;;;2.78;;
57443;SDS011;43289;52.962;6.196;2023-06-14T01:49:03;6.47;;;3.50;;
57443;SDS011;43289;52.962;6.196;2023-06-14T01:51:29;9.27;;;3.45;;
57443;SDS011;43289;52.962;6.196;2023-06-14T01:53:56;5.22;;;2.75;;
57443;SDS011;43289;52.962;6.196;2023-06-14T01:56:22;7.40;;;3.20;;
57443;SDS011;43289;52.962;6.196;2023-06-14T01:58:48;5.18;;;2.60;;
57443;SDS011;43289;52.962;6.196;2023-06-14T02:01:15;6.00;;;2.83;;
57443;SDS011;43289;52.962;6.196;2023-06-14T02:03:41;5.53;;;3.17;;
57443;SDS011;43289;52.962;6.196;2023-06-14T02:06:07;7.35;;;3.00;;
57443;SDS011;43289;52.962;6.196;2023-06-14T02:08:33;6.32;;;2.70;;
57443;SDS011;43289;52.962;6.196;2023-06-14T02:10:59;6.25;;;3.45;;
57443;SDS011;43289;52.962;6.196;2023-06-14T02:13:25;7.40;;;3.13;;
57443;SDS011;43289;52.962;6.196;2023-06-14T02:15:51;7.43;;;3.30;;
57443;SDS011;43289;52.962;6.196;2023-06-14T02:18:19;7.95;;;3.42;;
57443;SDS011;43289;52.962;6.196;2023-06-14T02:20:46;5.28;;;3.00;;
57443;SDS011;43289;52.962;6.196;2023-06-14T02:23:12;6.18;;;3.13;;
57443;SDS011;43289;52.962;6.196;2023-06-14T02:25:38;5.18;;;2.67;;
57443;SDS011;43289;52.962;6.196;2023-06-14T02:28:05;9.35;;;3.28;;
57443;SDS011;43289;52.962;6.196;2023-06-14T02:30:31;3.92;;;2.40;;
57443;SDS011;43289;52.962;6.196;2023-06-14T02:32:57;5.93;;;3.10;;
57443;SDS011;43289;52.962;6.196;2023-06-14T02:35:24;7.13;;;2.90;;
57443;SDS011;43289;52.962;6.196;2023-06-14T02:37:51;5.80;;;2.75;;
57443;SDS011;43289;52.962;6.196;2023-06-14T02:40:18;8.52;;;2.85;;
57443;SDS011;43289;52.962;6.196;2023-06-14T02:42:44;6.03;;;2.97;;
57443;SDS011;43289;52.962;6.196;2023-06-14T02:45:10;9.13;;;3.88;;
57443;SDS011;43289;52.962;6.196;2023-06-14T02:47:36;5.93;;;3.47;;
57443;SDS011;43289;52.962;6.196;2023-06-14T02:50:02;6.90;;;2.83;;
57443;SDS011;43289;52.962;6.196;2023-06-14T02:52:28;5.50;;;2.80;;
57443;SDS011;43289;52.962;6.196;2023-06-14T02:54:54;6.53;;;2.85;;
57443;SDS011;43289;52.962;6.196;2023-06-14T02:57:23;6.85;;;3.22;;
57443;SDS011;43289;52.962;6.196;2023-06-14T02:59:49;5.63;;;2.90;;
57443;SDS011;43289;52.962;6.196;2023-06-14T03:02:15;5.28;;;2.92;;
57443;SDS011;43289;52.962;6.196;2023-06-14T03:04:41;5.25;;;2.70;;
57443;SDS011;43289;52.962;6.196;2023-06-14T03:20:15;5.15;;;2.58;;
57443;SDS011;43289;52.962;6.196;2023-06-14T03:22:42;6.68;;;2.75;;
57443;SDS011;43289;52.962;6.196;2023-06-14T03:25:10;5.45;;;2.47;;
57443;SDS011;43289;52.962;6.196;2023-06-14T03:27:37;4.63;;;2.88;;
57443;SDS011;43289;52.962;6.196;2023-06-14T03:30:04;7.18;;;2.90;;
57443;SDS011;43289;52.962;6.196;2023-06-14T03:32:30;7.28;;;2.75;;
57443;SDS011;43289;52.962;6.196;2023-06-14T03:34:58;4.45;;;2.40;;
57443;SDS011;43289;52.962;6.196;2023-06-14T03:37:24;8.45;;;2.80;;
57443;SDS011;43289;52.962;6.196;2023-06-14T03:39:50;7.47;;;2.50;;
57443;SDS011;43289;52.962;6.196;2023-06-14T03:42:16;5.72;;;2.72;;
57443;SDS011;43289;52.962;6.196;2023-06-14T03:44:42;6.05;;;2.58;;
57443;SDS011;43289;52.962;6.196;2023-06-14T03:47:08;10.38;;;3.22;;
57443;SDS011;43289;52.962;6.196;2023-06-14T03:49:34;6.25;;;2.90;;
57443;SDS011;43289;52.962;6.196;2023-06-14T03:52:00;5.15;;;2.90;;
57443;SDS011;43289;52.962;6.196;2023-06-14T03:54:27;5.75;;;2.55;;
57443;SDS011;43289;52.962;6.196;2023-06-14T03:56:53;7.40;;;2.63;;
57443;SDS011;43289;52.962;6.196;2023-06-14T03:59:21;6.97;;;2.97;;
57443;SDS011;43289;52.962;6.196;2023-06-14T04:01:47;4.72;;;2.65;;
57443;SDS011;43289;52.962;6.196;2023-06-14T04:04:13;8.48;;;2.70;;
57443;SDS011;43289;52.962;6.196;2023-06-14T04:06:41;5.07;;;2.55;;
57443;SDS011;43289;52.962;6.196;2023-06-14T04:09:08;6.78;;;3.58;;
57443;SDS011;43289;52.962;6.196;2023-06-14T04:11:34;4.13;;;2.63;;
57443;SDS011;43289;52.962;6.196;2023-06-14T04:14:01;9.82;;;3.45;;
57443;SDS011;43289;52.962;6.196;2023-06-14T04:16:27;7.95;;;3.10;;
57443;SDS011;43289;52.962;6.196;2023-06-14T04:18:54;8.38;;;2.83;;
57443;SDS011;43289;52.962;6.196;2023-06-14T04:21:20;6.38;;;2.90;;
57443;SDS011;43289;52.962;6.196;2023-06-14T04:23:48;5.10;;;2.90;;
57443;SDS011;43289;52.962;6.196;2023-06-14T04:26:17;7.93;;;3.03;;
57443;SDS011;43289;52.962;6.196;2023-06-14T04:28:44;7.47;;;3.08;;
57443;SDS011;43289;52.962;6.196;2023-06-14T04:31:12;6.18;;;2.80;;
57443;SDS011;43289;52.962;6.196;2023-06-14T04:33:38;5.05;;;2.80;;
57443;SDS011;43289;52.962;6.196;2023-06-14T04:36:09;7.53;;;2.78;;
57443;SDS011;43289;52.962;6.196;2023-06-14T04:38:37;4.28;;;2.53;;
57443;SDS011;43289;52.962;6.196;2023-06-14T04:41:03;7.07;;;3.05;;
57443;SDS011;43289;52.962;6.196;2023-06-14T04:43:29;9.15;;;3.08;;
57443;SDS011;43289;52.962;6.196;2023-06-14T04:45:56;10.82;;;3.33;;
57443;SDS011;43289;52.962;6.196;2023-06-14T04:48:23;6.93;;;3.17;;
57443;SDS011;43289;52.962;6.196;2023-06-14T04:50:49;5.95;;;3.00;;
57443;SDS011;43289;52.962;6.196;2023-06-14T04:53:19;9.00;;;3.78;;
57443;SDS011;43289;52.962;6.196;2023-06-14T04:55:47;6.43;;;3.15;;
57443;SDS011;43289;52.962;6.196;2023-06-14T04:58:14;5.95;;;2.83;;
57443;SDS011;43289;52.962;6.196;2023-06-14T05:00:40;8.40;;;3.40;;
57443;SDS011;43289;52.962;6.196;2023-06-14T05:03:08;5.15;;;2.85;;
57443;SDS011;43289;52.962;6.196;2023-06-14T05:05:34;4.55;;;2.60;;
57443;SDS011;43289;52.962;6.196;2023-06-14T05:08:00;6.00;;;3.15;;
57443;SDS011;43289;52.962;6.196;2023-06-14T05:10:26;5.57;;;3.17;;
57443;SDS011;43289;52.962;6.196;2023-06-14T05:12:52;5.32;;;2.60;;
57443;SDS011;43289;52.962;6.196;2023-06-14T05:15:19;5.72;;;3.03;;
57443;SDS011;43289;52.962;6.196;2023-06-14T05:17:45;17.55;;;3.45;;
57443;SDS011;43289;52.962;6.196;2023-06-14T05:20:19;5.18;;;2.75;;
57443;SDS011;43289;52.962;6.196;2023-06-14T05:22:45;8.30;;;3.15;;
57443;SDS011;43289;52.962;6.196;2023-06-14T05:25:11;8.45;;;3.10;;
57443;SDS011;43289;52.962;6.196;2023-06-14T05:27:37;5.97;;;3.00;;
57443;SDS011;43289;52.962;6.196;2023-06-14T05:30:03;8.00;;;2.75;;
57443;SDS011;43289;52.962;6.196;2023-06-14T05:32:29;7.40;;;2.90;;
57443;SDS011;43289;52.962;6.196;2023-06-14T05:34:56;10.43;;;3.53;;
57443;SDS011;43289;52.962;6.196;2023-06-14T05:37:22;6.00;;;3.15;;
57443;SDS011;43289;52.962;6.196;2023-06-14T05:39:48;13.27;;;3.85;;
57443;SDS011;43289;52.962;6.196;2023-06-14T05:42:14;6.97;;;3.38;;
57443;SDS011;43289;52.962;6.196;2023-06-14T05:44:40;6.43;;;3.05;;
57443;SDS011;43289;52.962;6.196;2023-06-14T05:47:06;6.40;;;2.80;;
57443;SDS011;43289;52.962;6.196;2023-06-14T05:49:32;6.85;;;3.47;;
57443;SDS011;43289;52.962;6.196;2023-06-14T05:51:58;7.25;;;3.00;;
57443;SDS011;43289;52.962;6.196;2023-06-14T05:54:24;5.20;;;2.83;;
57443;SDS011;43289;52.962;6.196;2023-06-14T05:56:51;6.10;;;2.80;;
57443;SDS011;43289;52.962;6.196;2023-06-14T05:59:17;6.72;;;2.80;;
57443;SDS011;43289;52.962;6.196;2023-06-14T06:01:42;6.63;;;4.18;;
57443;SDS011;43289;52.962;6.196;2023-06-14T06:04:08;6.35;;;2.80;;
57443;SDS011;43289;52.962;6.196;2023-06-14T06:06:34;5.47;;;3.50;;
57443;SDS011;43289;52.962;6.196;2023-06-14T06:09:00;5.93;;;2.83;;
57443;SDS011;43289;52.962;6.196;2023-06-14T06:11:27;7.85;;;2.47;;
57443;SDS011;43289;52.962;6.196;2023-06-14T06:13:53;9.07;;;3.25;;
57443;SDS011;43289;52.962;6.196;2023-06-14T06:16:19;4.90;;;2.80;;
57443;SDS011;43289;52.962;6.196;2023-06-14T06:18:44;6.90;;;2.88;;
57443;SDS011;43289;52.962;6.196;2023-06-14T06:21:10;5.68;;;3.00;;
57443;SDS011;43289;52.962;6.196;2023-06-14T06:23:36;7.40;;;3.33;;
57443;SDS011;43289;52.962;6.196;2023-06-14T06:26:01;7.72;;;2.78;;
57443;SDS011;43289;52.962;6.196;2023-06-14T06:28:27;9.65;;;2.58;;
57443;SDS011;43289;52.962;6.196;2023-06-14T06:30:53;7.75;;;2.92;;
57443;SDS011;43289;52.962;6.196;2023-06-14T06:33:19;4.40;;;2.60;;
57443;SDS011;43289;52.962;6.196;2023-06-14T06:35:45;7.03;;;2.92;;
57443;SDS011;43289;52.962;6.196;2023-06-14T06:38:11;5.22;;;2.30;;
57443;SDS011;43289;52.962;6.196;2023-06-14T06:40:37;6.60;;;3.13;;
57443;SDS011;43289;52.962;6.196;2023-06-14T06:43:03;4.07;;;2.42;;
57443;SDS011;43289;52.962;6.196;2023-06-14T06:45:28;6.65;;;2.78;;
57443;SDS011;43289;52.962;6.196;2023-06-14T06:47:54;6.00;;;3.53;;
57443;SDS011;43289;52.962;6.196;2023-06-14T06:50:20;8.73;;;2.78;;
57443;SDS011;43289;52.962;6.196;2023-06-14T06:52:48;5.45;;;2.85;;
57443;SDS011;43289;52.962;6.196;2023-06-14T06:55:14;6.53;;;2.33;;
57443;SDS011;43289;52.962;6.196;2023-06-14T06:57:39;7.20;;;2.50;;
57443;SDS011;43289;52.962;6.196;2023-06-14T07:00:06;4.95;;;2.53;;
57443;SDS011;43289;52.962;6.196;2023-06-14T07:02:35;4.05;;;2.50;;
57443;SDS011;43289;52.962;6.196;2023-06-14T07:05:01;4.50;;;2.65;;
57443;SDS011;43289;52.962;6.196;2023-06-14T07:07:27;4.82;;;2.10;;
57443;SDS011;43289;52.962;6.196;2023-06-14T07:09:52;3.85;;;1.85;;
57443;SDS011;43289;52.962;6.196;2023-06-14T07:12:35;4.18;;;2.47;;
57443;SDS011;43289;52.962;6.196;2023-06-14T07:15:04;4.55;;;2.25;;
57443;SDS011;43289;52.962;6.196;2023-06-14T07:17:31;6.63;;;2.28;;
57443;SDS011;43289;52.962;6.196;2023-06-14T07:19:57;2.80;;;2.05;;
57443;SDS011;43289;52.962;6.196;2023-06-14T07:22:23;8.63;;;3.25;;
57443;SDS011;43289;52.962;6.196;2023-06-14T07:24:48;3.88;;;2.20;;
57443;SDS011;43289;52.962;6.196;2023-06-14T07:27:14;5.40;;;2.08;;
57443;SDS011;43289;52.962;6.196;2023-06-14T07:29:40;4.28;;;2.42;;
57443;SDS011;43289;52.962;6.196;2023-06-14T07:32:05;5.40;;;2.13;;
57443;SDS011;43289;52.962;6.196;2023-06-14T07:34:31;7.32;;;2.53;;
57443;SDS011;43289;52.962;6.196;2023-06-14T07:36:57;4.82;;;2.40;;
57443;SDS011;43289;52.962;6.196;2023-06-14T07:39:22;4.05;;;2.08;;
57443;SDS011;43289;52.962;6.196;2023-06-14T07:41:48;4.55;;;2.25;;
57443;SDS011;43289;52.962;6.196;2023-06-14T07:44:14;5.22;;;2.50;;
57443;SDS011;43289;52.962;6.196;2023-06-14T07:46:40;4.95;;;2.60;;
57443;SDS011;43289;52.962;6.196;2023-06-14T07:49:06;3.83;;;2.20;;
57443;SDS011;43289;52.962;6.196;2023-06-14T07:51:32;4.90;;;2.67;;
57443;SDS011;43289;52.962;6.196;2023-06-14T07:53:59;6.38;;;2.65;;
57443;SDS011;43289;52.962;6.196;2023-06-14T07:56:26;5.10;;;2.60;;
57443;SDS011;43289;52.962;6.196;2023-06-14T07:58:51;4.35;;;2.53;;
57443;SDS011;43289;52.962;6.196;2023-06-14T08:01:17;4.70;;;2.70;;
57443;SDS011;43289;52.962;6.196;2023-06-14T08:03:45;6.43;;;2.53;;
57443;SDS011;43289;52.962;6.196;2023-06-14T08:06:10;20.55;;;3.67;;
57443;SDS011;43289;52.962;6.196;2023-06-14T08:08:36;4.57;;;2.33;;
57443;SDS011;43289;52.962;6.196;2023-06-14T08:11:02;5.60;;;2.50;;
57443;SDS011;43289;52.962;6.196;2023-06-14T08:13:27;7.25;;;2.47;;
57443;SDS011;43289;52.962;6.196;2023-06-14T08:15:53;7.38;;;2.22;;
57443;SDS011;43289;52.962;6.196;2023-06-14T08:18:19;4.40;;;3.05;;
57443;SDS011;43289;52.962;6.196;2023-06-14T08:20:44;5.63;;;2.10;;
57443;SDS011;43289;52.962;6.196;2023-06-14T08:23:10;6.93;;;2.60;;
57443;SDS011;43289;52.962;6.196;2023-06-14T08:25:36;4.80;;;2.08;;
57443;SDS011;43289;52.962;6.196;2023-06-14T08:28:01;4.22;;;2.20;;
57443;SDS011;43289;52.962;6.196;2023-06-14T08:30:27;6.32;;;2.63;;
57443;SDS011;43289;52.962;6.196;2023-06-14T08:32:53;6.47;;;1.92;;
57443;SDS011;43289;52.962;6.196;2023-06-14T08:35:20;7.38;;;2.30;;
57443;SDS011;43289;52.962;6.196;2023-06-14T08:37:46;3.83;;;2.20;;
57443;SDS011;43289;52.962;6.196;2023-06-14T08:43:18;4.68;;;2.08;;
57443;SDS011;43289;52.962;6.196;2023-06-14T08:45:45;6.65;;;2.25;;
57443;SDS011;43289;52.962;6.196;2023-06-14T08:48:14;4.47;;;2.13;;
57443;SDS011;43289;52.962;6.196;2023-06-14T08:50:42;5.10;;;2.17;;
57443;SDS011;43289;52.962;6.196;2023-06-14T08:53:11;3.72;;;1.90;;
57443;SDS011;43289;52.962;6.196;2023-06-14T08:55:44;4.53;;;2.10;;
57443;SDS011;43289;52.962;6.196;2023-06-14T08:58:10;4.45;;;2.03;;
57443;SDS011;43289;52.962;6.196;2023-06-14T09:00:40;4.68;;;2.20;;
57443;SDS011;43289;52.962;6.196;2023-06-14T09:03:07;4.97;;;2.63;;
57443;SDS011;43289;52.962;6.196;2023-06-14T09:05:38;6.65;;;2.63;;
57443;SDS011;43289;52.962;6.196;2023-06-14T09:08:04;3.55;;;2.08;;
57443;SDS011;43289;52.962;6.196;2023-06-14T09:10:30;6.43;;;2.33;;
57443;SDS011;43289;52.962;6.196;2023-06-14T09:13:02;5.50;;;2.20;;
57443;SDS011;43289;52.962;6.196;2023-06-14T09:15:28;5.07;;;2.30;;
57443;SDS011;43289;52.962;6.196;2023-06-14T09:17:55;6.82;;;2.40;;
57443;SDS011;43289;52.962;6.196;2023-06-14T09:20:20;4.55;;;2.17;;
57443;SDS011;43289;52.962;6.196;2023-06-14T09:22:46;3.80;;;1.92;;
57443;SDS011;43289;52.962;6.196;2023-06-14T09:25:12;9.02;;;2.28;;
57443;SDS011;43289;52.962;6.196;2023-06-14T09:27:40;4.25;;;2.10;;
57443;SDS011;43289;52.962;6.196;2023-06-14T09:30:08;5.68;;;2.10;;
57443;SDS011;43289;52.962;6.196;2023-06-14T09:32:41;5.05;;;1.90;;
57443;SDS011;43289;52.962;6.196;2023-06-14T09:35:07;5.93;;;1.98;;
57443;SDS011;43289;52.962;6.196;2023-06-14T09:37:33;6.10;;;2.08;;
57443;SDS011;43289;52.962;6.196;2023-06-14T09:39:59;16.25;;;3.58;;
57443;SDS011;43289;52.962;6.196;2023-06-14T09:42:25;7.95;;;2.45;;
57443;SDS011;43289;52.962;6.196;2023-06-14T09:44:53;4.97;;;2.05;;
57443;SDS011;43289;52.962;6.196;2023-06-14T09:47:19;4.22;;;2.10;;
57443;SDS011;43289;52.962;6.196;2023-06-14T09:49:46;6.03;;;2.00;;
57443;SDS011;43289;52.962;6.196;2023-06-14T09:52:17;5.82;;;2.15;;
57443;SDS011;43289;52.962;6.196;2023-06-14T09:54:44;7.00;;;1.83;;
57443;SDS011;43289;52.962;6.196;2023-06-14T09:57:13;5.22;;;2.08;;
57443;SDS011;43289;52.962;6.196;2023-06-14T10:05:11;9.75;;;2.33;;
57443;SDS011;43289;52.962;6.196;2023-06-14T10:08:03;5.97;;;2.20;;
57443;SDS011;43289;52.962;6.196;2023-06-14T10:10:30;5.85;;;2.13;;
57443;SDS011;43289;52.962;6.196;2023-06-14T10:12:56;11.98;;;2.83;;
57443;SDS011;43289;52.962;6.196;2023-06-14T10:15:32;4.82;;;2.40;;
57443;SDS011;43289;52.962;6.196;2023-06-14T10:21:18;8.05;;;2.15;;
57443;SDS011;43289;52.962;6.196;2023-06-14T10:24:04;8.25;;;2.10;;
57443;SDS011;43289;52.962;6.196;2023-06-14T10:26:34;9.30;;;2.35;;
57443;SDS011;43289;52.962;6.196;2023-06-14T10:29:00;4.60;;;1.98;;
57443;SDS011;43289;52.962;6.196;2023-06-14T10:31:48;3.13;;;2.03;;
57443;SDS011;43289;52.962;6.196;2023-06-14T10:34:24;5.15;;;2.10;;
57443;SDS011;43289;52.962;6.196;2023-06-14T10:37:04;3.38;;;1.80;;
57443;SDS011;43289;52.962;6.196;2023-06-14T10:39:41;6.07;;;2.00;;
57443;SDS011;43289;52.962;6.196;2023-06-14T10:42:10;4.57;;;2.13;;
57443;SDS011;43289;52.962;6.196;2023-06-14T10:44:43;4.15;;;1.50;;
57443;SDS011;43289;52.962;6.196;2023-06-14T10:47:19;11.68;;;2.95;;
57443;SDS011;43289;52.962;6.196;2023-06-14T10:52:32;4.70;;;1.98;;
57443;SDS011;43289;52.962;6.196;2023-06-14T10:57:54;4.47;;;2.00;;
57443;SDS011;43289;52.962;6.196;2023-06-14T11:00:28;7.35;;;1.95;;
57443;SDS011;43289;52.962;6.196;2023-06-14T11:06:44;5.75;;;1.85;;
57443;SDS011;43289;52.962;6.196;2023-06-14T11:11:37;4.20;;;1.50;;
57443;SDS011;43289;52.962;6.196;2023-06-14T11:14:04;4.40;;;1.58;;
57443;SDS011;43289;52.962;6.196;2023-06-14T11:16:30;4.78;;;1.67;;
57443;SDS011;43289;52.962;6.196;2023-06-14T11:18:58;4.10;;;1.52;;
57443;SDS011;43289;52.962;6.196;2023-06-14T11:21:26;5.47;;;1.50;;
57443;SDS011;43289;52.962;6.196;2023-06-14T11:23:56;4.22;;;1.55;;
57443;SDS011;43289;52.962;6.196;2023-06-14T11:26:25;11.15;;;2.35;;
57443;SDS011;43289;52.962;6.196;2023-06-14T11:28:59;4.03;;;1.60;;
57443;SDS011;43289;52.962;6.196;2023-06-14T11:31:25;6.20;;;1.50;;
57443;SDS011;43289;52.962;6.196;2023-06-14T11:33:55;3.35;;;1.20;;
57443;SDS011;43289;52.962;6.196;2023-06-14T11:36:22;2.70;;;1.40;;
57443;SDS011;43289;52.962;6.196;2023-06-14T11:38:48;1.55;;;1.30;;
57443;SDS011;43289;52.962;6.196;2023-06-14T11:41:17;4.13;;;1.50;;
57443;SDS011;43289;52.962;6.196;2023-06-14T11:43:42;2.13;;;1.30;;
57443;SDS011;43289;52.962;6.196;2023-06-14T11:46:14;2.67;;;1.38;;
57443;SDS011;43289;52.962;6.196;2023-06-14T11:48:47;5.38;;;1.70;;
57443;SDS011;43289;52.962;6.196;2023-06-14T11:51:12;8.45;;;1.77;;
57443;SDS011;43289;52.962;6.196;2023-06-14T11:53:38;3.38;;;1.80;;
57443;SDS011;43289;52.962;6.196;2023-06-14T11:56:04;2.70;;;1.67;;
57443;SDS011;43289;52.962;6.196;2023-06-14T11:58:30;7.20;;;1.50;;
57443;SDS011;43289;52.962;6.196;2023-06-14T12:00:57;3.03;;;1.48;;
57443;SDS011;43289;52.962;6.196;2023-06-14T12:03:23;2.30;;;1.30;;
57443;SDS011;43289;52.962;6.196;2023-06-14T12:06:04;3.00;;;1.50;;
57443;SDS011;43289;52.962;6.196;2023-06-14T12:08:36;3.42;;;1.40;;
57443;SDS011;43289;52.962;6.196;2023-06-14T12:11:06;2.05;;;1.35;;
57443;SDS011;43289;52.962;6.196;2023-06-14T12:13:33;1.88;;;1.35;;
57443;SDS011;43289;52.962;6.196;2023-06-14T12:16:01;3.42;;;1.45;;
57443;SDS011;43289;52.962;6.196;2023-06-14T12:18:37;3.70;;;1.45;;
57443;SDS011;43289;52.962;6.196;2023-06-14T12:21:07;5.32;;;1.70;;
57443;SDS011;43289;52.962;6.196;2023-06-14T12:23:47;3.28;;;1.42;;
57443;SDS011;43289;52.962;6.196;2023-06-14T12:26:18;4.15;;;1.60;;
57443;SDS011;43289;52.962;6.196;2023-06-14T12:28:45;4.63;;;1.80;;
57443;SDS011;43289;52.962;6.196;2023-06-14T12:31:11;3.08;;;1.50;;
57443;SDS011;43289;52.962;6.196;2023-06-14T12:33:38;2.38;;;1.35;;
57443;SDS011;43289;52.962;6.196;2023-06-14T12:36:05;2.58;;;1.50;;
57443;SDS011;43289;52.962;6.196;2023-06-14T12:38:32;5.28;;;1.65;;
57443;SDS011;43289;52.962;6.196;2023-06-14T12:40:58;4.30;;;1.77;;
57443;SDS011;43289;52.962;6.196;2023-06-14T12:43:24;7.25;;;1.90;;
57443;SDS011;43289;52.962;6.196;2023-06-14T12:45:50;2.72;;;1.52;;
57443;SDS011;43289;52.962;6.196;2023-06-14T12:48:16;3.80;;;1.70;;
57443;SDS011;43289;52.962;6.196;2023-06-14T12:50:42;3.45;;;1.58;;
57443;SDS011;43289;52.962;6.196;2023-06-14T12:53:08;4.55;;;2.63;;
57443;SDS011;43289;52.962;6.196;2023-06-14T12:55:34;3.30;;;1.70;;
57443;SDS011;43289;52.962;6.196;2023-06-14T12:58:00;4.72;;;1.88;;
57443;SDS011;43289;52.962;6.196;2023-06-14T13:00:26;7.88;;;1.88;;
57443;SDS011;43289;52.962;6.196;2023-06-14T13:02:55;3.10;;;1.70;;
57443;SDS011;43289;52.962;6.196;2023-06-14T13:05:21;2.03;;;1.58;;
57443;SDS011;43289;52.962;6.196;2023-06-14T13:07:46;2.60;;;1.63;;
57443;SDS011;43289;52.962;6.196;2023-06-14T13:10:12;4.00;;;1.98;;
57443;SDS011;43289;52.962;6.196;2023-06-14T13:12:39;2.97;;;1.50;;
57443;SDS011;43289;52.962;6.196;2023-06-14T13:15:05;3.88;;;1.80;;
57443;SDS011;43289;52.962;6.196;2023-06-14T13:17:33;9.35;;;2.67;;
57443;SDS011;43289;52.962;6.196;2023-06-14T13:20:03;6.40;;;1.60;;
57443;SDS011;43289;52.962;6.196;2023-06-14T13:22:36;6.72;;;2.40;;
57443;SDS011;43289;52.962;6.196;2023-06-14T13:25:02;4.50;;;1.70;;
57443;SDS011;43289;52.962;6.196;2023-06-14T13:27:29;6.18;;;2.10;;
57443;SDS011;43289;52.962;6.196;2023-06-14T13:29:54;8.50;;;2.10;;
57443;SDS011;43289;52.962;6.196;2023-06-14T13:32:23;3.22;;;1.70;;
57443;SDS011;43289;52.962;6.196;2023-06-14T13:34:52;4.05;;;1.85;;
57443;SDS011;43289;52.962;6.196;2023-06-14T13:37:17;7.53;;;1.80;;
57443;SDS011;43289;52.962;6.196;2023-06-14T13:39:43;4.82;;;1.80;;
57443;SDS011;43289;52.962;6.196;2023-06-14T13:42:09;3.45;;;1.70;;
57443;SDS011;43289;52.962;6.196;2023-06-14T13:44:35;4.82;;;1.38;;
57443;SDS011;43289;52.962;6.196;2023-06-14T13:47:01;1.80;;;1.20;;
57443;SDS011;43289;52.962;6.196;2023-06-14T13:49:26;7.78;;;2.60;;
57443;SDS011;43289;52.962;6.196;2023-06-14T13:51:52;3.95;;;1.55;;
57443;SDS011;43289;52.962;6.196;2023-06-14T13:54:19;3.30;;;1.80;;
57443;SDS011;43289;52.962;6.196;2023-06-14T13:56:46;1.92;;;1.40;;
57443;SDS011;43289;52.962;6.196;2023-06-14T13:59:11;2.35;;;1.40;;
57443;SDS011;43289;52.962;6.196;2023-06-14T14:01:37;3.75;;;1.80;;
57443;SDS011;43289;52.962;6.196;2023-06-14T14:04:03;2.80;;;1.67;;
57443;SDS011;43289;52.962;6.196;2023-06-14T14:06:30;3.38;;;1.92;;
57443;SDS011;43289;52.962;6.196;2023-06-14T14:08:56;4.53;;;1.75;;
57443;SDS011;43289;52.962;6.196;2023-06-14T14:11:22;2.95;;;1.63;;
57443;SDS011;43289;52.962;6.196;2023-06-14T14:13:47;2.72;;;1.60;;
57443;SDS011;43289;52.962;6.196;2023-06-14T14:16:13;3.25;;;1.65;;
57443;SDS011;43289;52.962;6.196;2023-06-14T14:18:39;3.92;;;1.45;;
57443;SDS011;43289;52.962;6.196;2023-06-14T14:21:05;3.10;;;1.70;;
57443;SDS011;43289;52.962;6.196;2023-06-14T14:23:31;5.65;;;1.83;;
57443;SDS011;43289;52.962;6.196;2023-06-14T14:25:56;3.40;;;1.70;;
57443;SDS011;43289;52.962;6.196;2023-06-14T14:28:22;4.78;;;2.55;;
57443;SDS011;43289;52.962;6.196;2023-06-14T14:30:48;3.70;;;1.75;;
57443;SDS011;43289;52.962;6.196;2023-06-14T14:33:14;5.20;;;1.83;;
57443;SDS011;43289;52.962;6.196;2023-06-14T14:35:45;4.72;;;1.85;;
57443;SDS011;43289;52.962;6.196;2023-06-14T14:38:14;4.03;;;1.60;;
57443;SDS011;43289;52.962;6.196;2023-06-14T14:40:41;2.58;;;1.35;;
57443;SDS011;43289;52.962;6.196;2023-06-14T14:43:07;2.08;;;1.48;;
57443;SDS011;43289;52.962;6.196;2023-06-14T14:45:33;1.90;;;1.50;;
57443;SDS011;43289;52.962;6.196;2023-06-14T14:48:00;4.90;;;1.88;;
57443;SDS011;43289;52.962;6.196;2023-06-14T14:50:26;3.85;;;1.50;;
57443;SDS011;43289;52.962;6.196;2023-06-14T14:52:51;4.45;;;1.70;;
57443;SDS011;43289;52.962;6.196;2023-06-14T14:55:17;2.58;;;1.50;;
57443;SDS011;43289;52.962;6.196;2023-06-14T14:57:43;3.22;;;1.70;;
57443;SDS011;43289;52.962;6.196;2023-06-14T15:00:10;4.35;;;1.73;;
57443;SDS011;43289;52.962;6.196;2023-06-14T15:02:36;3.72;;;1.67;;
57443;SDS011;43289;52.962;6.196;2023-06-14T15:05:01;3.78;;;1.50;;
57443;SDS011;43289;52.962;6.196;2023-06-14T15:07:27;3.55;;;1.70;;
57443;SDS011;43289;52.962;6.196;2023-06-14T15:09:54;7.80;;;1.60;;
57443;SDS011;43289;52.962;6.196;2023-06-14T15:12:20;3.80;;;1.73;;
57443;SDS011;43289;52.962;6.196;2023-06-14T15:14:49;4.45;;;2.17;;
57443;SDS011;43289;52.962;6.196;2023-06-14T15:17:16;3.35;;;1.60;;
57443;SDS011;43289;52.962;6.196;2023-06-14T15:19:43;6.53;;;2.03;;
57443;SDS011;43289;52.962;6.196;2023-06-14T15:22:09;2.30;;;1.60;;
57443;SDS011;43289;52.962;6.196;2023-06-14T15:24:34;2.75;;;1.33;;